createdAt,value
2022-09-10T00:00:57.736Z,15.00
2022-09-10T00:03:24.555Z,15.00
2022-09-10T00:05:51.326Z,14.90
2022-09-10T00:08:18.653Z,14.90
2022-09-10T00:10:46.985Z,14.90
2022-09-10T00:13:14.877Z,14.90
2022-09-10T00:15:49.771Z,14.90
2022-09-10T00:18:17.503Z,14.90
2022-09-10T00:20:47.816Z,14.90
2022-09-10T00:23:15.461Z,14.80
2022-09-10T00:25:42.776Z,14.80
2022-09-10T00:28:09.402Z,14.80
2022-09-10T00:30:42.753Z,14.80
2022-09-10T00:33:09.895Z,14.80
2022-09-10T00:35:36.639Z,14.90
2022-09-10T00:38:03.917Z,14.90
2022-09-10T00:40:31.102Z,14.80
2022-09-10T00:42:57.799Z,14.90
2022-09-10T00:45:26.284Z,14.80
2022-09-10T00:47:54.663Z,14.90
2022-09-10T00:50:29.727Z,14.90
2022-09-10T00:52:58.489Z,14.90
2022-09-10T00:55:25.445Z,14.80
2022-09-10T00:57:54.820Z,14.80
2022-09-10T01:00:21.621Z,15.00
2022-09-10T01:02:48.276Z,14.70
2022-09-10T01:05:15.967Z,14.70
2022-09-10T01:07:43.638Z,14.70
2022-09-10T01:10:13.469Z,14.70
2022-09-10T01:12:58.638Z,14.70
2022-09-10T01:15:25.127Z,14.70
2022-09-10T01:17:51.618Z,14.60
2022-09-10T01:20:38.215Z,14.70
2022-09-10T01:23:23.749Z,14.60
2022-09-10T01:25:59.469Z,14.60
2022-09-10T01:28:29.293Z,14.60
2022-09-10T01:31:00.771Z,14.60
2022-09-10T01:33:34.572Z,14.70
2022-09-10T01:36:06.112Z,14.70
2022-09-10T01:38:35.480Z,14.70
2022-09-10T01:41:02.457Z,14.70
2022-09-10T01:43:28.989Z,14.70
2022-09-10T01:45:58.937Z,14.70
2022-09-10T01:48:25.559Z,14.70
2022-09-10T01:51:02.513Z,14.60
2022-09-10T01:53:50.969Z,14.60
2022-09-10T01:56:37.822Z,14.60
2022-09-10T01:59:11.404Z,14.60
2022-09-10T02:01:44.914Z,14.60
2022-09-10T02:04:14.496Z,14.60
2022-09-10T02:06:42.878Z,14.70
2022-09-10T02:09:09.868Z,14.60
2022-09-10T02:11:49.915Z,14.60
2022-09-10T02:14:16.901Z,14.60
2022-09-10T02:16:49.625Z,14.60
2022-09-10T02:19:16.699Z,14.60
2022-09-10T02:21:43.370Z,14.60
2022-09-10T02:24:11.302Z,14.60
2022-09-10T02:26:39.784Z,14.60
2022-09-10T02:29:06.797Z,14.70
2022-09-10T02:31:33.368Z,14.70
2022-09-10T02:33:59.922Z,14.70
2022-09-10T02:36:26.448Z,14.70
2022-09-10T02:38:53.356Z,14.80
2022-09-10T02:41:21.679Z,14.70
2022-09-10T02:43:48.764Z,14.70
2022-09-10T02:46:15.262Z,14.80
2022-09-10T02:48:41.817Z,14.80
2022-09-10T02:51:08.502Z,14.70
2022-09-10T02:53:35.738Z,14.80
2022-09-10T02:56:03.075Z,14.80
2022-09-10T02:58:31.318Z,14.80
2022-09-10T03:01:14.757Z,14.80
2022-09-10T03:03:41.532Z,14.80
2022-09-10T03:06:08.237Z,14.80
2022-09-10T03:08:35.140Z,14.80
2022-09-10T03:11:01.826Z,14.80
2022-09-10T03:16:04.149Z,14.80
2022-09-10T03:18:35.303Z,14.90
2022-09-10T03:21:09.148Z,14.80
2022-09-10T03:23:37.371Z,14.90
2022-09-10T03:26:04.399Z,14.90
2022-09-10T03:28:30.986Z,14.90
2022-09-10T03:30:57.527Z,14.90
2022-09-10T03:33:24.065Z,15.00
2022-09-10T03:35:52.719Z,14.90
2022-09-10T03:38:19.320Z,15.00
2022-09-10T03:40:45.911Z,15.00
2022-09-10T03:43:12.993Z,15.00
2022-09-10T03:45:39.918Z,15.00
2022-09-10T03:48:06.501Z,15.00
2022-09-10T03:50:33.232Z,15.00
2022-09-10T03:52:59.748Z,15.00
2022-09-10T03:55:26.258Z,15.00
2022-09-10T03:57:52.815Z,15.00
2022-09-10T04:00:19.364Z,15.00
2022-09-10T04:02:46.489Z,15.00
2022-09-10T04:05:13.053Z,15.00
2022-09-10T04:07:39.620Z,15.00
2022-09-10T04:10:07.044Z,15.00
2022-09-10T04:12:33.558Z,15.00
2022-09-10T04:15:01.852Z,15.00
2022-09-10T04:17:28.404Z,15.00
2022-09-10T04:19:54.964Z,15.00
2022-09-10T04:22:22.427Z,15.00
2022-09-10T04:24:48.966Z,15.00
2022-09-10T04:27:16.433Z,15.00
2022-09-10T04:29:43.061Z,15.00
2022-09-10T04:32:09.579Z,15.00
2022-09-10T04:34:36.639Z,15.00
2022-09-10T04:37:03.164Z,15.00
2022-09-10T04:39:29.963Z,15.00
2022-09-10T04:41:56.515Z,14.90
2022-09-10T04:44:23.099Z,14.90
2022-09-10T04:46:49.642Z,14.90
2022-09-10T04:49:16.164Z,15.00
2022-09-10T04:51:42.715Z,14.90
2022-09-10T04:54:12.056Z,14.90
2022-09-10T04:56:38.722Z,15.00
2022-09-10T04:59:05.249Z,14.90
2022-09-10T05:01:31.977Z,14.90
2022-09-10T05:03:58.498Z,14.90
2022-09-10T05:06:25.034Z,14.90
2022-09-10T05:08:51.516Z,14.90
2022-09-10T05:11:21.479Z,14.90
2022-09-10T05:13:47.992Z,14.90
2022-09-10T05:16:14.585Z,14.90
2022-09-10T05:18:41.551Z,14.90
2022-09-10T05:21:08.102Z,14.90
2022-09-10T05:23:34.665Z,15.00
2022-09-10T05:26:01.639Z,15.00
2022-09-10T05:28:28.173Z,15.00
2022-09-10T05:30:54.697Z,15.00
2022-09-10T05:33:22.013Z,15.00
2022-09-10T05:35:51.576Z,15.00
2022-09-10T05:38:18.563Z,15.00
2022-09-10T05:40:45.567Z,15.00
2022-09-10T05:43:12.271Z,15.10
2022-09-10T05:45:38.921Z,15.10
2022-09-10T05:48:05.551Z,15.10
2022-09-10T05:50:32.274Z,15.10
2022-09-10T05:52:58.740Z,15.20
2022-09-10T05:55:25.315Z,15.20
2022-09-10T05:57:51.864Z,15.30
2022-09-10T06:00:18.466Z,15.30
2022-09-10T06:02:45.340Z,15.40
2022-09-10T06:05:12.199Z,15.40
2022-09-10T06:07:39.854Z,15.40
2022-09-10T06:10:06.698Z,15.50
2022-09-10T06:12:34.178Z,15.50
2022-09-10T06:15:00.723Z,15.60
2022-09-10T06:17:27.253Z,15.60
2022-09-10T06:19:53.768Z,15.70
2022-09-10T06:22:20.362Z,15.70
2022-09-10T06:24:49.065Z,15.70
2022-09-10T06:27:16.080Z,15.80
2022-09-10T06:29:42.619Z,15.90
2022-09-10T06:32:09.242Z,16.00
2022-09-10T06:34:35.783Z,16.10
2022-09-10T06:37:04.110Z,16.20
2022-09-10T06:39:30.610Z,16.40
2022-09-10T06:41:57.111Z,16.50
2022-09-10T06:44:23.643Z,16.60
2022-09-10T06:47:32.500Z,16.70
2022-09-10T06:49:36.702Z,16.80
2022-09-10T06:52:03.526Z,16.80
2022-09-10T06:54:30.046Z,16.80
2022-09-10T06:56:57.794Z,17.00
2022-09-10T06:59:24.314Z,17.00
2022-09-10T07:01:50.926Z,17.10
2022-09-10T07:04:17.524Z,17.20
2022-09-10T07:06:45.924Z,17.30
2022-09-10T07:09:12.481Z,17.30
2022-09-10T07:11:41.544Z,17.40
2022-09-10T07:14:12.530Z,17.50
2022-09-10T07:16:44.301Z,17.70
2022-09-10T07:19:12.197Z,17.70
2022-09-10T07:21:39.266Z,17.60
2022-09-10T07:24:05.869Z,17.80
2022-09-10T07:26:32.603Z,18.00
2022-09-10T07:28:59.534Z,18.20
2022-09-10T07:31:29.819Z,18.30
2022-09-10T07:34:00.921Z,18.50
2022-09-10T07:36:28.266Z,18.60
2022-09-10T07:38:57.424Z,18.70
2022-09-10T07:41:24.172Z,18.80
2022-09-10T07:43:53.010Z,18.80
2022-09-10T07:46:20.432Z,18.90
2022-09-10T07:48:50.842Z,19.10
2022-09-10T07:51:20.470Z,19.30
2022-09-10T07:53:50.656Z,19.30
2022-09-10T07:56:17.524Z,19.50
2022-09-10T07:58:44.716Z,19.70
2022-09-10T08:01:12.361Z,19.70
2022-09-10T08:03:39.875Z,20.00
2022-09-10T08:06:07.418Z,20.20
2022-09-10T08:08:35.369Z,20.50
2022-09-10T08:11:08.481Z,20.20
2022-09-10T08:13:38.105Z,20.30
2022-09-10T08:16:08.422Z,20.30
2022-09-10T08:18:35.885Z,20.20
2022-09-10T08:21:03.116Z,20.10
2022-09-10T08:23:29.917Z,20.30
2022-09-10T08:25:56.877Z,20.40
2022-09-10T08:28:25.502Z,20.20
2022-09-10T08:30:56.845Z,20.20
2022-09-10T08:33:23.972Z,20.10
2022-09-10T08:36:00.180Z,20.10
2022-09-10T08:38:29.846Z,20.00
2022-09-10T08:40:57.319Z,20.00
2022-09-10T08:43:47.745Z,19.80
2022-09-10T08:46:19.836Z,19.50
2022-09-10T08:48:48.214Z,19.30
2022-09-10T08:51:17.078Z,19.10
2022-09-10T08:54:04.203Z,19.00
2022-09-10T08:56:32.627Z,19.00
2022-09-10T08:59:14.761Z,18.90
2022-09-10T09:01:45.534Z,18.90
2022-09-10T09:04:16.501Z,18.90
2022-09-10T09:06:50.215Z,18.90
2022-09-10T09:09:16.783Z,18.90
2022-09-10T09:11:58.229Z,19.00
2022-09-10T09:14:45.144Z,19.10
2022-09-10T09:17:30.417Z,19.30
2022-09-10T09:20:05.993Z,19.30
2022-09-10T09:22:39.906Z,19.30
2022-09-10T09:25:20.847Z,19.40
2022-09-10T09:27:48.269Z,19.50
2022-09-10T09:30:14.831Z,19.50
2022-09-10T09:32:42.712Z,19.70
2022-09-10T09:35:23.772Z,20.10
2022-09-10T09:37:55.265Z,20.50
2022-09-10T09:40:37.932Z,20.90
2022-09-10T09:43:09.536Z,21.20
2022-09-10T09:45:37.547Z,21.10
2022-09-10T09:48:09.428Z,21.10
2022-09-10T09:50:38.834Z,21.10
2022-09-10T09:53:05.357Z,21.10
2022-09-10T09:55:40.189Z,21.20
2022-09-10T09:58:21.671Z,21.20
2022-09-10T10:00:49.339Z,21.20
2022-09-10T10:03:18.185Z,21.10
2022-09-10T10:05:44.819Z,21.20
2022-09-10T10:08:31.187Z,21.30
2022-09-10T10:10:58.137Z,21.30
2022-09-10T10:13:24.735Z,21.30
2022-09-10T10:15:51.314Z,21.20
2022-09-10T10:18:33.518Z,21.00
2022-09-10T10:21:15.697Z,20.70
2022-09-10T10:23:42.254Z,20.40
2022-09-10T10:26:14.542Z,20.20
2022-09-10T10:28:44.657Z,20.00
2022-09-10T10:31:11.637Z,19.80
2022-09-10T10:33:40.848Z,19.80
2022-09-10T10:39:21.883Z,19.50
2022-09-10T10:41:56.176Z,19.50
2022-09-10T10:44:25.682Z,19.60
2022-09-10T10:47:06.818Z,19.70
2022-09-10T10:49:49.341Z,19.70
2022-09-10T10:52:15.845Z,19.60
2022-09-10T10:54:52.858Z,19.50
2022-09-10T10:57:20.051Z,19.20
2022-09-10T10:59:46.553Z,19.00
2022-09-10T11:02:16.621Z,18.80
2022-09-10T11:04:43.385Z,18.60
2022-09-10T11:07:14.432Z,18.30
2022-09-10T11:09:48.464Z,18.20
2022-09-10T11:12:27.871Z,18.10
2022-09-10T11:14:56.447Z,18.20
2022-09-10T11:17:29.080Z,18.20
2022-09-10T11:20:24.679Z,18.50
2022-09-10T11:22:49.751Z,18.80
2022-09-10T11:25:22.033Z,19.20
2022-09-10T11:27:53.161Z,19.40
2022-09-10T11:30:19.739Z,19.70
2022-09-10T11:32:50.234Z,20.10
2022-09-10T11:35:19.594Z,20.60
2022-09-10T11:38:04.911Z,21.20
2022-09-10T11:40:41.947Z,21.70
2022-09-10T11:43:13.575Z,22.60
2022-09-10T11:45:45.515Z,23.20
2022-09-10T11:48:20.955Z,23.50
2022-09-10T11:51:00.004Z,24.00
2022-09-10T11:53:27.943Z,24.70
2022-09-10T11:55:54.596Z,25.20
2022-09-10T11:58:31.106Z,25.50
2022-09-10T12:01:05.610Z,25.60
2022-09-10T12:03:32.230Z,25.70
2022-09-10T12:06:03.695Z,25.60
2022-09-10T12:08:30.699Z,26.00
2022-09-10T12:11:32.864Z,25.80
2022-09-10T12:14:00.200Z,25.30
2022-09-10T12:16:26.691Z,25.50
2022-09-10T12:18:54.882Z,25.70
2022-09-10T12:21:39.398Z,25.70
2022-09-10T12:24:25.656Z,25.60
2022-09-10T12:26:53.503Z,25.30
2022-09-10T12:29:27.926Z,25.80
2022-09-10T12:32:13.573Z,26.00
2022-09-10T12:34:40.738Z,26.20
2022-09-10T12:37:19.154Z,25.60
2022-09-10T12:39:45.838Z,25.40
2022-09-10T12:42:27.122Z,25.10
2022-09-10T12:44:54.064Z,24.70
2022-09-10T12:47:39.207Z,24.40
2022-09-10T12:50:20.407Z,24.80
2022-09-10T12:52:46.897Z,25.40
2022-09-10T12:55:13.398Z,26.40
2022-09-10T12:58:09.323Z,27.30
2022-09-10T13:00:38.634Z,26.70
2022-09-10T13:03:05.716Z,26.80
2022-09-10T13:05:44.551Z,26.60
2022-09-10T13:08:27.763Z,26.40
2022-09-10T13:11:01.198Z,25.90
2022-09-10T13:13:34.129Z,25.70
2022-09-10T13:16:01.390Z,25.40
2022-09-10T13:18:29.258Z,25.00
2022-09-10T13:20:56.142Z,25.00
2022-09-10T13:23:23.994Z,25.80
2022-09-10T13:25:51.261Z,26.40
2022-09-10T13:28:30.143Z,27.40
2022-09-10T13:31:13.097Z,28.00
2022-09-10T13:33:49.078Z,28.80
2022-09-10T13:36:28.266Z,28.60
2022-09-10T13:39:07.736Z,28.10
2022-09-10T13:41:58.984Z,27.60
2022-09-10T13:44:37.884Z,26.90
2022-09-10T13:47:09.413Z,26.30
2022-09-10T13:50:02.181Z,25.90
2022-09-10T13:52:30.733Z,25.50
2022-09-10T13:54:58.110Z,25.20
2022-09-10T13:57:26.702Z,25.00
2022-09-10T14:00:00.814Z,24.60
2022-09-10T14:02:41.096Z,24.40
2022-09-10T14:05:26.600Z,24.50
2022-09-10T14:07:57.472Z,24.30
2022-09-10T14:10:24.240Z,24.00
2022-09-10T14:12:51.312Z,23.80
2022-09-10T14:15:21.855Z,23.70
2022-09-10T14:17:50.725Z,23.70
2022-09-10T14:20:37.610Z,23.50
2022-09-10T14:23:12.608Z,23.30
2022-09-10T14:25:40.648Z,23.20
2022-09-10T14:28:16.118Z,23.20
2022-09-10T14:30:44.038Z,23.40
2022-09-10T14:33:20.812Z,23.50
2022-09-10T14:35:49.261Z,23.50
2022-09-10T14:38:33.789Z,23.40
2022-09-10T14:41:05.485Z,23.30
2022-09-10T14:43:34.668Z,23.20
2022-09-10T14:46:02.241Z,23.30
2022-09-10T14:48:33.724Z,23.30
2022-09-10T14:51:09.605Z,23.30
2022-09-10T14:53:36.398Z,23.20
2022-09-10T14:56:04.245Z,23.20
2022-09-10T14:58:31.106Z,23.10
2022-09-10T15:00:58.516Z,23.00
2022-09-10T15:03:25.102Z,22.80
2022-09-10T15:05:51.623Z,22.70
2022-09-10T15:08:18.121Z,22.50
2022-09-10T15:10:44.706Z,22.50
2022-09-10T15:13:14.733Z,22.40
2022-09-10T15:15:41.379Z,22.40
2022-09-10T15:18:12.701Z,22.20
2022-09-10T15:20:39.210Z,22.10
2022-09-10T15:23:06.877Z,22.00
2022-09-10T15:25:42.109Z,21.80
2022-09-10T15:28:08.661Z,21.40
2022-09-10T15:30:36.725Z,21.40
2022-09-10T15:33:04.103Z,21.20
2022-09-10T15:35:30.995Z,21.20
2022-09-10T15:37:57.817Z,21.20
2022-09-10T15:40:24.538Z,20.90
2022-09-10T15:42:52.262Z,20.90
2022-09-10T15:45:19.081Z,20.80
2022-09-10T15:47:45.909Z,20.70
2022-09-10T15:50:12.724Z,20.70
2022-09-10T15:52:39.352Z,20.70
2022-09-10T15:55:06.934Z,20.70
2022-09-10T15:57:33.812Z,20.70
2022-09-10T16:00:01.730Z,20.70
2022-09-10T16:02:28.365Z,20.70
2022-09-10T16:04:55.008Z,20.70
2022-09-10T16:07:21.533Z,20.60
2022-09-10T16:09:48.029Z,20.60
2022-09-10T16:12:14.539Z,20.60
2022-09-10T16:14:44.281Z,20.40
2022-09-10T16:17:10.979Z,20.30
2022-09-10T16:19:37.949Z,20.30
2022-09-10T16:22:05.458Z,20.20
2022-09-10T16:24:32.104Z,20.10
2022-09-10T16:26:58.694Z,20.00
2022-09-10T16:29:25.269Z,19.90
2022-09-10T16:31:52.051Z,19.90
2022-09-10T16:34:19.609Z,19.80
2022-09-10T16:36:48.646Z,19.70
2022-09-10T16:39:16.221Z,19.60
2022-09-10T16:41:43.795Z,19.50
2022-09-10T16:44:11.161Z,19.50
2022-09-10T16:46:38.406Z,19.50
2022-09-10T16:49:05.833Z,19.40
2022-09-10T16:51:33.931Z,19.40
2022-09-10T16:54:04.360Z,19.30
2022-09-10T16:56:33.622Z,19.30
2022-09-10T16:59:00.502Z,19.20
2022-09-10T17:01:27.872Z,19.20
2022-09-10T17:03:54.444Z,19.10
2022-09-10T17:06:24.483Z,19.10
2022-09-10T17:08:51.784Z,19.00
2022-09-10T17:11:19.657Z,18.90
2022-09-10T17:13:46.734Z,18.80
2022-09-10T17:16:16.875Z,18.70
2022-09-10T17:18:44.484Z,18.60
2022-09-10T17:21:11.068Z,18.40
2022-09-10T17:23:37.710Z,18.40
2022-09-10T17:26:06.205Z,18.30
2022-09-10T17:28:33.112Z,18.20
2022-09-10T17:31:00.557Z,18.20
2022-09-10T17:33:27.738Z,18.10
2022-09-10T17:36:00.156Z,17.90
2022-09-10T17:38:27.685Z,17.90
2022-09-10T17:40:55.038Z,17.80
2022-09-10T17:43:24.294Z,17.70
2022-09-10T17:45:53.796Z,17.80
2022-09-10T17:48:20.611Z,17.70
2022-09-10T17:50:48.831Z,17.70
2022-09-10T17:53:15.878Z,17.70
2022-09-10T17:55:43.017Z,17.60
2022-09-10T17:58:10.110Z,17.50
2022-09-10T18:00:40.215Z,17.50
2022-09-10T18:03:09.243Z,17.40
2022-09-10T18:05:36.943Z,17.30
2022-09-10T18:08:03.604Z,17.20
2022-09-10T18:10:30.159Z,17.20
2022-09-10T18:13:00.176Z,17.10
2022-09-10T18:15:27.600Z,17.00
2022-09-10T18:17:54.534Z,17.00
2022-09-10T18:20:22.875Z,16.90
2022-09-10T18:22:49.515Z,16.80
2022-09-10T18:25:16.109Z,16.80
2022-09-10T18:27:43.140Z,16.80
2022-09-10T18:30:10.156Z,16.80
2022-09-10T18:32:36.684Z,16.80
2022-09-10T18:35:03.366Z,16.80
2022-09-10T18:37:29.942Z,16.80
2022-09-10T18:39:56.464Z,16.80
2022-09-10T18:42:23.054Z,16.70
2022-09-10T18:44:49.585Z,16.70
2022-09-10T18:47:34.324Z,16.70
2022-09-10T18:50:02.661Z,16.80
2022-09-10T18:52:31.014Z,16.70
2022-09-10T18:54:57.538Z,16.70
2022-09-10T18:57:24.559Z,16.70
2022-09-10T18:59:54.035Z,16.70
2022-09-10T19:02:21.071Z,16.70
2022-09-10T19:05:09.728Z,16.60
2022-09-10T19:07:34.311Z,16.60
2022-09-10T19:10:03.944Z,16.50
2022-09-10T19:12:30.468Z,16.50
2022-09-10T19:14:57.025Z,16.50
2022-09-10T19:17:23.861Z,16.40
2022-09-10T19:19:50.749Z,16.40
2022-09-10T19:22:18.139Z,16.40
2022-09-10T19:25:00.803Z,16.30
2022-09-10T19:27:28.413Z,16.30
2022-09-10T19:29:55.815Z,16.20
2022-09-10T19:32:22.472Z,16.20
2022-09-10T19:34:49.751Z,16.20
2022-09-10T19:37:17.128Z,16.10
2022-09-10T19:39:44.432Z,16.00
2022-09-10T19:42:12.414Z,16.10
2022-09-10T19:44:38.984Z,16.00
2022-09-10T19:47:05.490Z,16.00
2022-09-10T19:49:31.987Z,16.00
2022-09-10T19:51:58.516Z,15.90
2022-09-10T19:54:25.679Z,16.00
2022-09-10T19:56:52.251Z,16.00
2022-09-10T19:59:18.772Z,15.90
2022-09-10T20:01:46.032Z,16.00
2022-09-10T20:04:13.929Z,16.00
2022-09-10T20:06:41.119Z,15.90
2022-09-10T20:09:08.580Z,15.90
2022-09-10T20:11:35.755Z,15.90
2022-09-10T20:14:04.195Z,15.90
2022-09-10T20:16:31.365Z,15.90
2022-09-10T20:18:57.941Z,15.90
2022-09-10T20:21:26.832Z,15.90
2022-09-10T20:23:55.566Z,15.90
2022-09-10T20:26:23.769Z,15.90
2022-09-10T20:28:52.616Z,15.90
2022-09-10T20:31:19.866Z,15.90
2022-09-10T20:33:46.510Z,15.90
2022-09-10T20:36:15.034Z,15.90
2022-09-10T20:38:43.193Z,15.90
2022-09-10T20:41:11.691Z,15.90
2022-09-10T20:43:38.599Z,15.90
2022-09-10T20:46:05.277Z,16.00
2022-09-10T20:48:31.891Z,15.90
2022-09-10T20:50:59.402Z,15.90
2022-09-10T20:53:26.780Z,15.90
2022-09-10T20:56:01.633Z,15.90
2022-09-10T20:58:28.237Z,15.80
2022-09-10T21:00:55.133Z,15.80
2022-09-10T21:03:21.686Z,15.80
2022-09-10T21:05:48.622Z,15.90
2022-09-10T21:08:15.335Z,15.80
2022-09-10T21:10:41.933Z,15.80
2022-09-10T21:13:09.552Z,15.80
2022-09-10T21:15:36.067Z,15.80
2022-09-10T21:18:02.612Z,15.80
2022-09-10T21:20:29.138Z,15.80
2022-09-10T21:22:56.267Z,15.90
2022-09-10T21:25:22.808Z,15.80
2022-09-10T21:27:49.340Z,15.80
2022-09-10T21:30:15.938Z,15.80
2022-09-10T21:32:42.525Z,15.80
2022-09-10T21:35:09.290Z,15.80
2022-09-10T21:37:35.824Z,15.80
2022-09-10T21:40:03.113Z,15.80
2022-09-10T21:42:29.676Z,15.80
2022-09-10T21:44:56.218Z,15.80
2022-09-10T21:47:23.195Z,15.80
2022-09-10T21:49:49.802Z,15.80
2022-09-10T21:52:16.638Z,15.80
2022-09-10T21:54:43.282Z,15.70
2022-09-10T21:57:11.682Z,15.80
2022-09-10T21:59:38.341Z,15.80
2022-09-10T22:02:04.944Z,15.80
2022-09-10T22:04:31.668Z,15.80
2022-09-10T22:06:58.618Z,15.80
2022-09-10T22:09:26.221Z,15.80
2022-09-10T22:11:54.071Z,15.70
2022-09-10T22:14:21.995Z,15.80
2022-09-10T22:16:48.873Z,15.70
2022-09-10T22:19:18.032Z,15.70
2022-09-10T22:21:44.914Z,15.70
2022-09-10T22:24:12.378Z,15.80
2022-09-10T22:26:41.384Z,15.60
2022-09-10T22:29:07.906Z,15.70
2022-09-10T22:31:35.577Z,15.80
2022-09-10T22:34:03.929Z,15.80
2022-09-10T22:36:32.020Z,15.80
2022-09-10T22:38:59.731Z,15.80
2022-09-10T22:41:27.129Z,15.80
2022-09-10T22:43:53.953Z,15.80
2022-09-10T22:46:21.079Z,15.80
2022-09-10T22:48:47.625Z,15.80
2022-09-10T22:51:15.514Z,15.80
2022-09-10T22:53:42.688Z,15.80
2022-09-10T22:56:09.893Z,15.80
2022-09-10T22:58:36.828Z,15.80
2022-09-10T23:01:07.983Z,15.80
2022-09-10T23:03:34.585Z,15.80
2022-09-10T23:06:12.071Z,15.80
2022-09-10T23:08:39.425Z,15.80
2022-09-10T23:11:15.170Z,15.70
2022-09-10T23:13:45.742Z,15.80
2022-09-10T23:16:19.890Z,15.70
2022-09-10T23:18:47.690Z,15.70
2022-09-10T23:21:14.262Z,15.80
2022-09-10T23:23:44.150Z,15.70
2022-09-10T23:26:10.899Z,15.70
2022-09-10T23:28:37.500Z,15.70
2022-09-10T23:31:14.523Z,15.70
2022-09-10T23:33:42.297Z,15.70
2022-09-10T23:36:09.171Z,15.70
2022-09-10T23:38:35.846Z,15.70
2022-09-10T23:41:02.853Z,15.70
2022-09-10T23:43:29.401Z,15.70
2022-09-10T23:45:56.098Z,15.70
2022-09-10T23:48:23.943Z,15.70
2022-09-10T23:50:51.254Z,15.70
2022-09-10T23:53:18.327Z,15.70
2022-09-10T23:55:45.234Z,15.70
2022-09-10T23:58:11.891Z,15.70
